createdAt,value
2022-12-19T00:00:50.349Z,116.85
2022-12-19T00:03:21.520Z,122.20
2022-12-19T00:05:51.507Z,124.15
2022-12-19T00:08:21.340Z,118.40
2022-12-19T00:11:01.287Z,128.17
2022-12-19T00:13:38.108Z,117.95
2022-12-19T00:16:15.375Z,115.38
2022-12-19T00:18:50.211Z,112.28
2022-12-19T00:21:24.365Z,117.38
2022-12-19T00:23:55.232Z,121.72
2022-12-19T00:26:31.262Z,134.95
2022-12-19T00:29:03.859Z,130.40
2022-12-19T00:31:37.314Z,151.57
2022-12-19T00:34:07.298Z,120.38
2022-12-19T00:36:37.749Z,124.68
2022-12-19T00:39:08.779Z,136.75
2022-12-19T00:41:42.326Z,120.78
2022-12-19T00:44:16.293Z,115.40
2022-12-19T00:46:52.362Z,108.57
2022-12-19T00:49:23.647Z,108.35
2022-12-19T00:51:53.549Z,112.50
2022-12-19T00:54:23.519Z,109.43
2022-12-19T00:56:53.981Z,104.47
2022-12-19T00:59:27.122Z,102.93
2022-12-19T01:01:58.013Z,118.20
2022-12-19T01:04:29.231Z,106.78
2022-12-19T01:07:02.502Z,119.40
2022-12-19T01:09:34.090Z,105.05
2022-12-19T01:12:24.013Z,104.18
2022-12-19T01:15:02.909Z,106.93
2022-12-19T01:17:43.468Z,246.95
2022-12-19T01:20:15.619Z,602.15
2022-12-19T01:22:46.711Z,540.75
2022-12-19T01:25:17.649Z,443.30
2022-12-19T01:27:47.467Z,358.15
2022-12-19T01:30:17.279Z,248.37
2022-12-19T01:32:48.586Z,190.75
2022-12-19T01:35:21.955Z,173.23
2022-12-19T01:37:55.917Z,170.82
2022-12-19T01:40:38.844Z,172.48
2022-12-19T01:43:15.411Z,176.77
2022-12-19T01:45:46.152Z,150.48
2022-12-19T01:48:23.220Z,177.70
2022-12-19T01:51:02.579Z,188.55
2022-12-19T01:53:49.065Z,147.98
2022-12-19T01:56:23.031Z,162.25
2022-12-19T01:59:05.671Z,149.15
2022-12-19T02:01:41.460Z,148.25
2022-12-19T02:04:23.364Z,163.68
2022-12-19T02:06:54.120Z,150.55
2022-12-19T02:11:54.792Z,143.43
2022-12-19T02:14:25.098Z,182.57
2022-12-19T02:17:15.208Z,166.75
2022-12-19T02:20:07.780Z,161.32
2022-12-19T02:23:09.223Z,161.98
2022-12-19T02:26:01.695Z,160.25
2022-12-19T02:29:01.586Z,157.23
2022-12-19T02:31:35.148Z,151.77
2022-12-19T02:34:18.853Z,163.73
2022-12-19T02:37:04.655Z,136.80
2022-12-19T02:39:52.608Z,141.05
2022-12-19T02:42:35.093Z,146.40
2022-12-19T02:45:08.683Z,141.35
2022-12-19T02:47:40.890Z,136.45
2022-12-19T02:50:11.749Z,117.47
2022-12-19T02:52:48.752Z,121.22
2022-12-19T02:55:24.188Z,112.25
2022-12-19T02:58:30.861Z,118.97
2022-12-19T03:01:31.065Z,117.32
2022-12-19T03:04:29.380Z,108.60
2022-12-19T03:07:15.381Z,126.10
2022-12-19T03:09:59.318Z,119.75
2022-12-19T03:12:38.817Z,125.88
2022-12-19T03:15:20.518Z,119.70
2022-12-19T03:17:51.038Z,107.85
2022-12-19T03:20:30.834Z,127.25
2022-12-19T03:23:00.749Z,126.83
2022-12-19T03:25:33.031Z,137.15
2022-12-19T03:28:09.782Z,122.28
2022-12-19T03:30:41.982Z,136.32
2022-12-19T03:33:13.976Z,146.45
2022-12-19T03:35:46.329Z,142.40
2022-12-19T03:38:17.723Z,124.82
2022-12-19T03:40:50.355Z,126.20
2022-12-19T03:43:23.380Z,121.65
2022-12-19T03:46:00.673Z,124.90
2022-12-19T03:48:53.105Z,119.00
2022-12-19T03:51:59.250Z,128.07
2022-12-19T03:54:43.153Z,127.55
2022-12-19T03:57:25.379Z,115.63
2022-12-19T04:00:04.443Z,126.45
2022-12-19T04:02:40.920Z,122.13
2022-12-19T04:05:15.760Z,119.07
2022-12-19T04:07:46.794Z,121.43
2022-12-19T04:10:24.102Z,122.97
2022-12-19T04:13:07.818Z,109.80
2022-12-19T04:16:05.426Z,127.68
2022-12-19T04:18:37.308Z,116.18
2022-12-19T04:21:26.803Z,115.32
2022-12-19T04:24:04.760Z,113.38
2022-12-19T04:26:37.011Z,125.82
2022-12-19T04:29:08.609Z,125.25
2022-12-19T04:31:40.198Z,133.75
2022-12-19T04:34:10.231Z,144.30
2022-12-19T04:36:40.338Z,138.07
2022-12-19T04:39:10.214Z,136.00
2022-12-19T04:41:42.295Z,126.85
2022-12-19T04:44:12.655Z,127.15
2022-12-19T04:46:42.745Z,131.20
2022-12-19T04:49:12.638Z,132.88
2022-12-19T04:51:42.507Z,155.90
2022-12-19T04:54:12.570Z,139.98
2022-12-19T04:56:42.383Z,141.07
2022-12-19T04:59:16.456Z,137.70
2022-12-19T05:01:50.762Z,146.95
2022-12-19T05:04:21.857Z,130.52
2022-12-19T05:06:51.774Z,152.88
2022-12-19T05:09:22.649Z,139.23
2022-12-19T05:11:53.704Z,131.73
2022-12-19T05:14:23.672Z,138.48
2022-12-19T05:16:58.871Z,139.65
2022-12-19T05:19:31.669Z,146.48
2022-12-19T05:22:02.683Z,126.85
2022-12-19T05:24:32.986Z,127.18
2022-12-19T05:29:34.466Z,138.68
2022-12-19T05:32:04.359Z,130.65
2022-12-19T05:34:34.714Z,131.20
2022-12-19T05:37:05.403Z,107.38
2022-12-19T05:39:36.640Z,120.60
2022-12-19T05:42:12.110Z,133.45
2022-12-19T05:44:42.460Z,121.28
2022-12-19T05:47:12.498Z,120.43
2022-12-19T05:49:42.443Z,116.38
2022-12-19T05:52:13.203Z,119.78
2022-12-19T05:54:43.404Z,127.43
2022-12-19T05:57:13.499Z,115.15
2022-12-19T05:59:44.234Z,129.02
2022-12-19T06:02:14.468Z,109.88
2022-12-19T06:04:44.680Z,95.82
2022-12-19T06:07:19.299Z,90.03
2022-12-19T06:09:50.914Z,101.78
2022-12-19T06:12:20.792Z,91.93
2022-12-19T06:14:51.640Z,90.47
2022-12-19T06:17:21.683Z,91.25
2022-12-19T06:19:51.635Z,75.28
2022-12-19T06:22:21.683Z,86.25
2022-12-19T06:24:51.935Z,91.85
2022-12-19T06:27:22.057Z,87.80
2022-12-19T06:29:51.965Z,84.03
2022-12-19T06:32:21.937Z,84.43
2022-12-19T06:35:06.914Z,72.60
2022-12-19T06:37:39.455Z,72.18
2022-12-19T06:40:29.807Z,70.65
2022-12-19T06:43:00.576Z,62.33
2022-12-19T06:45:30.650Z,65.63
2022-12-19T06:48:00.808Z,66.07
2022-12-19T06:50:30.789Z,79.05
2022-12-19T06:53:01.841Z,66.05
2022-12-19T06:55:31.830Z,57.00
2022-12-19T06:58:02.652Z,62.35
2022-12-19T07:00:33.357Z,57.72
2022-12-19T07:03:03.895Z,63.67
2022-12-19T07:05:34.139Z,51.40
2022-12-19T07:08:04.126Z,47.10
2022-12-19T07:10:34.199Z,42.90
2022-12-19T07:13:05.164Z,44.25
2022-12-19T07:15:37.851Z,59.30
2022-12-19T07:18:10.820Z,49.83
2022-12-19T07:20:45.410Z,63.35
2022-12-19T07:23:21.652Z,61.67
2022-12-19T07:25:51.979Z,62.88
2022-12-19T07:30:51.912Z,61.00
2022-12-19T07:33:22.279Z,77.95
2022-12-19T07:35:53.168Z,67.43
2022-12-19T07:38:23.458Z,64.22
2022-12-19T07:40:53.383Z,47.25
2022-12-19T07:43:23.194Z,55.42
2022-12-19T07:45:58.273Z,48.50
2022-12-19T07:48:30.404Z,49.22
2022-12-19T07:51:00.357Z,39.28
2022-12-19T07:53:31.092Z,38.08
2022-12-19T07:56:01.875Z,37.05
2022-12-19T07:58:32.325Z,37.95
2022-12-19T08:01:03.419Z,49.95
2022-12-19T08:03:33.443Z,44.40
2022-12-19T08:06:13.110Z,37.08
2022-12-19T08:08:43.570Z,35.63
2022-12-19T08:13:47.176Z,32.75
2022-12-19T08:16:18.364Z,28.80
2022-12-19T08:18:50.107Z,31.90
2022-12-19T08:21:20.096Z,34.22
2022-12-19T08:23:50.304Z,22.48
2022-12-19T08:26:32.705Z,20.65
2022-12-19T08:29:07.579Z,27.02
2022-12-19T08:31:37.688Z,24.17
2022-12-19T08:34:07.664Z,31.17
2022-12-19T08:36:37.585Z,27.33
2022-12-19T08:39:08.412Z,29.40
2022-12-19T08:41:38.514Z,32.28
2022-12-19T08:44:09.218Z,34.47
2022-12-19T08:46:39.249Z,28.80
2022-12-19T08:49:09.243Z,28.17
2022-12-19T08:51:39.164Z,35.35
2022-12-19T08:54:11.911Z,36.22
2022-12-19T08:56:46.920Z,48.17
2022-12-19T08:59:30.894Z,44.35
2022-12-19T09:02:03.784Z,30.35
2022-12-19T09:05:59.557Z,44.30
2022-12-19T09:07:26.252Z,46.53
2022-12-19T09:09:56.226Z,41.33
2022-12-19T09:12:26.366Z,35.72
2022-12-19T09:14:56.812Z,35.90
2022-12-19T09:19:55.928Z,46.90
2022-12-19T09:22:29.194Z,33.40
2022-12-19T09:24:59.603Z,43.45
2022-12-19T09:27:29.701Z,38.47
2022-12-19T09:29:59.754Z,39.25
2022-12-19T09:32:30.599Z,31.23
2022-12-19T09:35:00.400Z,29.58
2022-12-19T09:37:30.431Z,31.55
2022-12-19T09:40:01.142Z,36.15
2022-12-19T09:42:55.639Z,29.95
2022-12-19T09:46:00.148Z,34.50
2022-12-19T09:48:30.223Z,37.83
2022-12-19T09:51:27.480Z,34.75
2022-12-19T09:54:26.715Z,38.80
2022-12-19T09:57:03.520Z,42.25
2022-12-19T09:59:49.385Z,38.53
2022-12-19T10:02:56.421Z,52.78
2022-12-19T10:07:06.979Z,49.53
2022-12-19T10:09:42.723Z,43.75
2022-12-19T10:12:44.449Z,56.28
2022-12-19T10:15:16.138Z,39.13
2022-12-19T10:18:04.320Z,45.45
2022-12-19T10:20:40.443Z,43.10
2022-12-19T10:23:49.186Z,55.17
2022-12-19T10:26:29.997Z,47.20
2022-12-19T10:29:28.920Z,44.00
2022-12-19T10:32:28.538Z,50.30
2022-12-19T10:34:59.144Z,50.90
2022-12-19T10:37:42.331Z,54.22
2022-12-19T10:40:30.783Z,48.45
2022-12-19T10:43:32.109Z,45.00
2022-12-19T10:46:12.678Z,41.42
2022-12-19T10:48:43.457Z,49.80
2022-12-19T10:51:29.581Z,54.30
2022-12-19T10:54:02.068Z,50.70
2022-12-19T10:56:37.789Z,45.72
2022-12-19T10:59:22.496Z,50.40
2022-12-19T11:02:00.988Z,55.75
2022-12-19T11:04:40.009Z,48.05
2022-12-19T11:07:22.662Z,56.03
2022-12-19T11:10:20.529Z,59.70
2022-12-19T11:18:42.658Z,68.10
2022-12-19T11:22:06.029Z,68.18
2022-12-19T11:29:15.611Z,53.22
2022-12-19T11:29:39.513Z,70.43
2022-12-19T11:29:46.779Z,72.53
2022-12-19T11:30:35.540Z,67.15
2022-12-19T11:33:27.187Z,97.25
2022-12-19T11:36:00.200Z,99.88
2022-12-19T11:38:47.839Z,112.95
2022-12-19T11:41:25.767Z,90.68
2022-12-19T11:44:05.241Z,103.63
2022-12-19T11:46:51.882Z,79.47
2022-12-19T11:49:41.151Z,70.45
2022-12-19T11:56:03.653Z,68.40
2022-12-19T11:58:34.873Z,59.92
2022-12-19T12:01:28.473Z,63.38
2022-12-19T12:04:32.830Z,67.43
2022-12-19T12:07:06.683Z,94.30
2022-12-19T12:15:44.912Z,104.57
2022-12-19T12:20:21.158Z,94.15
2022-12-19T12:26:21.429Z,82.32
2022-12-19T12:31:31.376Z,81.30
2022-12-19T12:31:39.938Z,91.68
2022-12-19T12:31:40.357Z,87.72
2022-12-19T12:31:45.499Z,94.07
2022-12-19T12:35:41.441Z,84.32
2022-12-19T12:39:18.370Z,99.00
2022-12-19T12:42:25.074Z,102.68
2022-12-19T12:45:00.339Z,98.68
2022-12-19T12:47:31.891Z,104.40
2022-12-19T12:50:08.284Z,100.43
2022-12-19T12:52:45.267Z,94.30
2022-12-19T12:55:41.844Z,100.80
2022-12-19T12:58:46.111Z,91.45
2022-12-19T13:01:22.360Z,100.00
2022-12-19T13:04:00.375Z,91.40
2022-12-19T13:07:09.048Z,95.68
2022-12-19T13:09:39.066Z,94.75
2022-12-19T13:12:46.374Z,91.85
2022-12-19T13:15:36.061Z,94.85
2022-12-19T13:18:39.177Z,104.37
2022-12-19T13:21:11.530Z,110.63
2022-12-19T13:23:49.080Z,108.30
2022-12-19T13:26:47.803Z,119.65
2022-12-19T13:29:31.885Z,114.30
2022-12-19T13:32:18.359Z,112.47
2022-12-19T13:35:04.764Z,105.65
2022-12-19T13:39:57.250Z,118.40
2022-12-19T13:41:03.915Z,107.05
2022-12-19T13:43:49.155Z,118.93
2022-12-19T13:46:44.474Z,110.10
2022-12-19T13:49:34.192Z,111.88
2022-12-19T13:57:27.811Z,110.38
2022-12-19T14:00:02.076Z,109.40
2022-12-19T14:02:45.278Z,108.75
2022-12-19T14:06:16.328Z,113.30
2022-12-19T14:08:29.117Z,113.07
2022-12-19T14:11:30.930Z,107.95
2022-12-19T14:14:16.456Z,120.93
2022-12-19T14:16:49.527Z,103.20
2022-12-19T14:19:26.758Z,119.78
2022-12-19T14:22:10.399Z,119.65
2022-12-19T14:24:55.652Z,116.63
2022-12-19T14:28:21.291Z,137.35
2022-12-19T14:30:57.548Z,135.10
2022-12-19T14:33:44.991Z,123.38
2022-12-19T14:36:28.342Z,145.18
2022-12-19T14:39:23.552Z,153.68
2022-12-19T14:42:11.789Z,132.20
2022-12-19T14:52:08.377Z,140.07
2022-12-19T14:54:01.798Z,159.63
2022-12-19T14:54:27.513Z,146.82
2022-12-19T14:54:34.715Z,153.73
2022-12-19T14:59:30.511Z,164.07
2022-12-19T15:02:27.716Z,160.27
2022-12-19T15:05:08.320Z,148.73
2022-12-19T15:07:44.152Z,180.25
2022-12-19T15:11:04.090Z,142.45
2022-12-19T15:14:53.358Z,145.93
2022-12-19T15:16:36.309Z,155.65
2022-12-19T15:19:12.718Z,151.43
2022-12-19T15:21:42.629Z,139.75
2022-12-19T15:24:12.531Z,146.98
2022-12-19T15:26:50.497Z,122.50
2022-12-19T15:29:22.272Z,147.80
2022-12-19T15:31:52.455Z,130.88
2022-12-19T15:34:36.785Z,129.60
2022-12-19T15:37:13.191Z,115.45
2022-12-19T15:39:44.642Z,113.97
2022-12-19T15:42:24.009Z,112.22
2022-12-19T15:44:57.364Z,124.80
2022-12-19T15:47:41.937Z,109.18
2022-12-19T15:50:28.459Z,112.65
2022-12-19T15:53:01.055Z,111.60
2022-12-19T15:55:32.940Z,145.85
2022-12-19T15:58:07.064Z,144.20
2022-12-19T16:00:38.660Z,165.77
2022-12-19T16:03:22.666Z,153.75
2022-12-19T16:05:54.447Z,134.48
2022-12-19T16:08:27.861Z,151.13
2022-12-19T16:11:01.822Z,131.30
2022-12-19T16:13:36.215Z,137.43
2022-12-19T16:16:15.152Z,154.18
2022-12-19T16:18:47.000Z,134.50
2022-12-19T16:21:33.492Z,161.70
2022-12-19T16:24:03.902Z,139.55
2022-12-19T16:26:37.839Z,141.75
2022-12-19T16:29:11.077Z,146.02
2022-12-19T16:31:41.432Z,132.32
2022-12-19T16:34:21.228Z,140.30
2022-12-19T16:36:52.087Z,144.48
2022-12-19T16:39:22.053Z,136.57
2022-12-19T16:41:52.313Z,148.40
2022-12-19T16:44:24.012Z,139.10
2022-12-19T16:46:54.550Z,146.73
2022-12-19T16:49:25.204Z,135.15
2022-12-19T16:54:24.286Z,143.02
2022-12-19T16:56:56.357Z,144.63
2022-12-19T16:59:35.696Z,138.10
2022-12-19T17:02:29.934Z,145.32
2022-12-19T17:04:59.894Z,155.75
2022-12-19T17:07:31.209Z,139.02
2022-12-19T17:10:01.153Z,139.80
2022-12-19T17:12:31.396Z,124.15
2022-12-19T17:15:01.628Z,120.28
2022-12-19T17:17:31.443Z,128.70
2022-12-19T17:20:01.585Z,120.75
2022-12-19T17:22:31.546Z,119.03
2022-12-19T17:25:01.386Z,137.57
2022-12-19T17:27:31.160Z,128.52
2022-12-19T17:30:01.085Z,140.05
2022-12-19T17:32:31.066Z,122.65
2022-12-19T17:35:01.029Z,119.85
2022-12-19T17:37:31.140Z,131.65
2022-12-19T17:40:00.962Z,127.57
2022-12-19T17:42:36.845Z,112.75
2022-12-19T17:45:07.851Z,140.68
2022-12-19T17:47:37.639Z,116.10
2022-12-19T17:50:09.535Z,127.50
2022-12-19T17:52:39.503Z,128.20
2022-12-19T17:55:20.046Z,125.47
2022-12-19T17:57:50.255Z,131.57
2022-12-19T18:00:28.398Z,137.98
2022-12-19T18:03:02.803Z,122.05
2022-12-19T18:05:37.694Z,123.38
2022-12-19T18:08:21.073Z,126.78
2022-12-19T18:10:50.928Z,118.47
2022-12-19T18:13:22.003Z,113.00
2022-12-19T18:15:52.495Z,123.25
2022-12-19T18:18:28.661Z,129.95
2022-12-19T18:20:59.330Z,114.30
2022-12-19T18:26:01.775Z,122.43
2022-12-19T18:28:32.879Z,111.28
2022-12-19T18:31:11.934Z,123.40
2022-12-19T18:33:44.245Z,129.57
2022-12-19T18:36:32.731Z,120.28
2022-12-19T18:39:02.708Z,115.78
2022-12-19T18:41:32.557Z,164.20
2022-12-19T18:44:02.357Z,129.20
2022-12-19T18:46:33.910Z,127.28
2022-12-19T18:49:03.747Z,114.95
2022-12-19T18:51:33.757Z,111.70
2022-12-19T18:54:03.609Z,112.03
2022-12-19T18:56:33.524Z,123.65
2022-12-19T18:59:06.219Z,132.45
2022-12-19T19:01:37.898Z,122.88
2022-12-19T19:04:08.884Z,118.13
2022-12-19T19:06:39.091Z,107.45
2022-12-19T19:09:18.505Z,114.30
2022-12-19T19:11:48.356Z,118.25
2022-12-19T19:14:18.225Z,115.88
2022-12-19T19:16:48.268Z,122.68
2022-12-19T19:19:20.297Z,142.70
2022-12-19T19:21:50.457Z,119.45
2022-12-19T19:24:23.489Z,131.52
2022-12-19T19:26:53.398Z,144.75
2022-12-19T19:29:23.309Z,143.75
2022-12-19T19:31:54.549Z,150.20
2022-12-19T19:34:29.185Z,144.07
2022-12-19T19:37:03.436Z,140.70
2022-12-19T19:39:35.851Z,135.63
2022-12-19T19:42:05.927Z,131.38
2022-12-19T19:44:35.917Z,125.85
2022-12-19T19:47:05.773Z,137.85
2022-12-19T19:49:35.915Z,120.03
2022-12-19T19:52:05.809Z,129.43
2022-12-19T19:54:37.392Z,131.70
2022-12-19T19:57:07.457Z,105.18
2022-12-19T19:59:37.367Z,142.52
2022-12-19T20:02:07.454Z,119.80
2022-12-19T20:04:38.286Z,126.68
2022-12-19T20:09:38.041Z,110.88
2022-12-19T20:12:08.065Z,101.93
2022-12-19T20:14:38.088Z,110.43
2022-12-19T20:17:08.190Z,106.18
2022-12-19T20:19:38.059Z,112.38
2022-12-19T20:22:08.025Z,111.25
2022-12-19T20:24:37.899Z,114.47
2022-12-19T20:27:07.764Z,97.10
2022-12-19T20:29:38.258Z,94.40
2022-12-19T20:32:08.566Z,99.22
2022-12-19T20:34:38.428Z,99.50
2022-12-19T20:37:08.394Z,86.28
2022-12-19T20:39:38.285Z,117.55
2022-12-19T20:42:08.407Z,105.50
2022-12-19T20:44:38.522Z,93.40
2022-12-19T20:47:08.441Z,115.50
2022-12-19T20:49:38.578Z,103.43
2022-12-19T20:52:08.544Z,95.03
2022-12-19T20:54:38.378Z,100.22
2022-12-19T20:57:08.300Z,98.45
2022-12-19T20:59:38.136Z,105.38
2022-12-19T21:02:08.509Z,94.73
2022-12-19T21:04:38.732Z,100.35
2022-12-19T21:07:08.784Z,102.22
2022-12-19T21:09:38.809Z,99.60
2022-12-19T21:12:08.845Z,117.85
2022-12-19T21:14:38.681Z,96.88
2022-12-19T21:17:08.747Z,102.37
2022-12-19T21:19:38.656Z,97.20
2022-12-19T21:22:08.448Z,107.82
2022-12-19T21:24:38.637Z,94.70
2022-12-19T21:27:08.520Z,102.10
2022-12-19T21:29:38.329Z,94.50
2022-12-19T21:32:11.002Z,100.03
2022-12-19T21:34:44.951Z,99.63
2022-12-19T21:37:14.993Z,85.47
2022-12-19T21:39:44.915Z,99.78
2022-12-19T21:42:14.898Z,92.45
2022-12-19T21:44:44.732Z,99.43
2022-12-19T21:47:14.669Z,86.00
2022-12-19T21:49:44.645Z,92.30
2022-12-19T21:52:15.182Z,85.15
2022-12-19T21:54:45.123Z,86.25
2022-12-19T21:57:15.065Z,95.20
2022-12-19T21:59:45.090Z,98.80
2022-12-19T22:02:15.218Z,88.72
2022-12-19T22:04:45.233Z,83.18
2022-12-19T22:07:15.115Z,102.55
2022-12-19T22:09:45.103Z,87.20
2022-12-19T22:12:15.829Z,94.70
2022-12-19T22:17:15.350Z,91.72
2022-12-19T22:19:45.296Z,89.90
2022-12-19T22:22:15.266Z,91.38
2022-12-19T22:24:45.158Z,94.10
2022-12-19T22:27:15.223Z,92.22
2022-12-19T22:29:45.107Z,85.32
2022-12-19T22:32:14.999Z,84.75
2022-12-19T22:34:45.037Z,82.45
2022-12-19T22:37:14.968Z,83.28
2022-12-19T22:39:44.940Z,87.00
2022-12-19T22:42:14.757Z,79.72
2022-12-19T22:44:44.611Z,95.70
2022-12-19T22:47:14.487Z,94.63
2022-12-19T22:49:44.381Z,89.93
2022-12-19T22:52:14.282Z,96.30
2022-12-19T22:54:44.187Z,85.85
2022-12-19T22:57:14.259Z,88.90
2022-12-19T22:59:44.460Z,97.53
2022-12-19T23:02:14.448Z,84.97
2022-12-19T23:04:44.522Z,93.05
2022-12-19T23:07:14.423Z,87.25
2022-12-19T23:09:44.484Z,98.47
2022-12-19T23:12:14.648Z,89.82
2022-12-19T23:14:44.600Z,96.88
2022-12-19T23:17:14.463Z,89.80
2022-12-19T23:19:44.438Z,91.68
2022-12-19T23:22:14.316Z,86.80
2022-12-19T23:24:46.333Z,92.78
2022-12-19T23:27:16.208Z,88.00
2022-12-19T23:29:47.420Z,81.97
2022-12-19T23:32:17.342Z,86.13
2022-12-19T23:34:47.658Z,73.65
2022-12-19T23:37:17.954Z,87.10
2022-12-19T23:39:47.875Z,79.03
2022-12-19T23:42:17.792Z,78.35
2022-12-19T23:44:47.717Z,89.18
2022-12-19T23:47:17.612Z,79.23
2022-12-19T23:49:47.541Z,84.40
2022-12-19T23:52:18.131Z,79.63
2022-12-19T23:54:49.114Z,96.68
2022-12-19T23:57:18.931Z,74.95
2022-12-19T23:59:48.887Z,78.93
